Weather at Febau Heliport

Public forecast

Using degrees Celsius for public forecast. Weather courtesy of forecast.io.

Closest aviation weather report (METAR) to Febau Heliport

Closest report is Klagenfurt Airport, 11.5 nm (21.3 km) W.

2024/05/22 19:50 (retrieved 14 minutes ago)

LOWK 221950Z AUTO 03002KT 9999 FEW050 BKN070 16/12 Q1014 TEMPO SHRA

Closest aviation forecast (TAF) to Febau Heliport

Closest forecast is Klagenfurt Airport, 11.5 nm (21.3 km) W.

2024/05/22 18:21 (retrieved 2 hours ago)

TAF LOWK 221715Z 2218/2318 VRB03KT 9999 SCT030 BKN070 TX19/2313Z TN11/2303Z PROB40 TEMPO 2221/2307 BKN007 TEMPO 2310/2318 09008KT SHRA FEW030CB SCT040 PROB40 TEMPO 2312/2317 VRB15KT 3000 TSRA